createdAt,value
2022-08-05T00:00:01.749Z,11.02
2022-08-05T00:02:30.706Z,11.90
2022-08-05T00:04:59.647Z,10.77
2022-08-05T00:08:01.093Z,8.90
2022-08-05T00:10:16.607Z,9.20
2022-08-05T00:12:56.719Z,10.15
2022-08-05T00:15:56.074Z,9.68
2022-08-05T00:18:21.560Z,8.77
2022-08-05T00:20:50.918Z,11.23
2022-08-05T00:23:30.858Z,9.70
2022-08-05T00:26:08.285Z,9.80
2022-08-05T00:28:37.000Z,9.60
2022-08-05T00:31:07.519Z,10.68
2022-08-05T00:34:56.279Z,9.93
2022-08-05T00:37:12.316Z,9.82
2022-08-05T00:39:14.236Z,10.88
2022-08-05T00:41:51.984Z,9.43
2022-08-05T00:44:30.874Z,9.52
2022-08-05T00:47:02.107Z,9.95
2022-08-05T00:49:44.603Z,9.82
2022-08-05T00:52:28.254Z,10.70
2022-08-05T00:54:57.489Z,9.68
2022-08-05T00:57:31.735Z,10.02
2022-08-05T01:00:16.980Z,10.00
2022-08-05T01:02:46.970Z,9.90
2022-08-05T01:05:18.672Z,9.77
2022-08-05T01:08:41.695Z,10.60
2022-08-05T01:10:40.157Z,11.20
2022-08-05T01:13:27.536Z,10.00
2022-08-05T01:16:15.490Z,9.90
2022-08-05T01:18:56.603Z,9.50
2022-08-05T01:21:38.027Z,9.38
2022-08-05T01:24:13.437Z,10.98
2022-08-05T01:26:48.388Z,10.60
2022-08-05T01:29:23.294Z,10.02
2022-08-05T01:31:53.237Z,11.25
2022-08-05T01:34:26.752Z,10.63
2022-08-05T01:37:00.513Z,10.23
2022-08-05T01:39:45.637Z,11.02
2022-08-05T01:42:18.399Z,10.55
2022-08-05T01:44:54.393Z,10.10
2022-08-05T01:47:24.515Z,10.35
2022-08-05T01:50:08.822Z,10.05
2022-08-05T01:52:45.424Z,10.60
2022-08-05T01:55:20.019Z,12.15
2022-08-05T01:58:29.775Z,11.95
2022-08-05T02:00:41.631Z,10.88
2022-08-05T02:03:16.372Z,10.05
2022-08-05T02:05:53.772Z,10.75
2022-08-05T02:08:31.273Z,10.93
2022-08-05T02:11:03.135Z,10.73
2022-08-05T02:13:53.466Z,9.73
2022-08-05T02:16:24.863Z,10.13
2022-08-05T02:18:58.243Z,10.48
2022-08-05T02:21:28.358Z,10.10
2022-08-05T02:24:01.443Z,10.52
2022-08-05T02:26:35.544Z,11.98
2022-08-05T02:29:04.734Z,10.32
2022-08-05T02:31:36.346Z,10.68
2022-08-05T02:34:09.336Z,10.10
2022-08-05T02:36:41.049Z,11.05
2022-08-05T02:39:10.329Z,10.43
2022-08-05T02:41:58.224Z,11.13
2022-08-05T02:44:28.489Z,10.00
2022-08-05T02:47:00.759Z,11.15
2022-08-05T02:49:37.079Z,9.65
2022-08-05T02:52:07.594Z,10.32
2022-08-05T02:54:37.310Z,9.50
2022-08-05T02:57:10.103Z,10.20
2022-08-05T02:59:56.245Z,10.77
2022-08-05T03:02:30.687Z,10.90
2022-08-05T03:05:00.073Z,10.00
2022-08-05T03:07:59.467Z,11.63
2022-08-05T03:10:22.033Z,10.63
2022-08-05T03:12:54.071Z,10.90
2022-08-05T03:15:23.787Z,11.30
2022-08-05T03:17:55.848Z,11.75
2022-08-05T03:20:26.402Z,9.82
2022-08-05T03:22:57.538Z,10.65
2022-08-05T03:25:33.176Z,10.20
2022-08-05T03:28:18.893Z,11.05
2022-08-05T03:30:48.693Z,10.80
2022-08-05T03:33:19.350Z,10.02
2022-08-05T03:35:48.345Z,12.55
2022-08-05T03:38:32.624Z,10.90
2022-08-05T03:41:08.369Z,13.32
2022-08-05T03:44:09.979Z,11.15
2022-08-05T03:46:29.966Z,11.77
2022-08-05T03:49:02.307Z,10.90
2022-08-05T03:52:38.380Z,10.73
2022-08-05T03:55:50.895Z,11.48
2022-08-05T03:57:16.344Z,13.38
2022-08-05T03:59:54.775Z,10.73
2022-08-05T04:02:37.900Z,10.57
2022-08-05T04:05:11.124Z,9.90
2022-08-05T04:07:57.232Z,10.52
2022-08-05T04:10:28.405Z,10.57
2022-08-05T04:13:04.125Z,10.88
2022-08-05T04:15:36.223Z,10.45
2022-08-05T04:18:07.250Z,10.88
2022-08-05T04:20:41.130Z,10.77
2022-08-05T04:23:12.677Z,11.88
2022-08-05T04:26:00.485Z,11.52
2022-08-05T04:28:31.663Z,11.75
2022-08-05T04:31:01.117Z,12.70
2022-08-05T04:33:54.525Z,14.43
2022-08-05T04:36:44.910Z,12.73
2022-08-05T04:39:08.663Z,13.30
2022-08-05T04:41:38.660Z,13.27
2022-08-05T04:44:09.082Z,13.18
2022-08-05T04:46:38.714Z,13.63
2022-08-05T04:49:12.291Z,12.85
2022-08-05T04:51:45.009Z,13.43
2022-08-05T04:54:14.801Z,13.70
2022-08-05T04:56:43.642Z,13.73
2022-08-05T04:59:22.226Z,13.40
2022-08-05T05:02:08.159Z,14.25
2022-08-05T05:04:49.909Z,15.13
2022-08-05T05:07:29.552Z,14.30
2022-08-05T05:10:04.403Z,13.77
2022-08-05T05:12:33.343Z,15.40
2022-08-05T05:15:03.738Z,14.48
2022-08-05T05:17:55.656Z,14.80
2022-08-05T05:20:28.764Z,14.70
2022-08-05T05:22:58.965Z,15.52
2022-08-05T05:25:40.339Z,15.50
2022-08-05T05:28:09.866Z,15.40
2022-08-05T05:30:38.356Z,15.95
2022-08-05T05:33:13.903Z,14.98
2022-08-05T05:35:45.305Z,14.65
2022-08-05T05:38:22.240Z,14.93
2022-08-05T05:40:56.041Z,14.65
2022-08-05T05:43:56.536Z,14.27
2022-08-05T05:46:16.027Z,14.40
2022-08-05T05:48:48.365Z,15.57
2022-08-05T05:51:20.802Z,15.07
2022-08-05T05:53:57.420Z,14.70
2022-08-05T05:56:32.732Z,15.57
2022-08-05T05:59:05.081Z,14.48
2022-08-05T06:01:37.396Z,15.00
2022-08-05T06:04:08.304Z,16.02
2022-08-05T06:06:42.570Z,15.13
2022-08-05T06:09:16.949Z,16.08
2022-08-05T06:12:01.120Z,14.95
2022-08-05T06:14:30.936Z,13.40
2022-08-05T06:16:59.609Z,13.25
2022-08-05T06:19:35.070Z,13.18
2022-08-05T06:22:04.088Z,12.40
2022-08-05T06:24:34.017Z,12.55
2022-08-05T06:27:04.134Z,11.45
2022-08-05T06:29:46.593Z,12.20
2022-08-05T06:32:26.244Z,11.68
2022-08-05T06:34:58.673Z,11.02
2022-08-05T06:37:52.291Z,11.18
2022-08-05T06:40:21.082Z,11.77
2022-08-05T06:42:51.955Z,13.80
2022-08-05T06:45:43.914Z,11.98
2022-08-05T06:48:36.175Z,10.02
2022-08-05T06:51:00.247Z,10.45
2022-08-05T06:53:29.241Z,10.57
2022-08-05T06:55:59.956Z,10.43
2022-08-05T06:58:36.414Z,10.70
2022-08-05T07:01:06.256Z,10.07
2022-08-05T07:03:35.297Z,9.57
2022-08-05T07:06:05.766Z,8.80
2022-08-05T07:08:43.110Z,8.25
2022-08-05T07:11:22.353Z,8.10
2022-08-05T07:14:20.249Z,8.25
2022-08-05T07:18:02.125Z,8.05
2022-08-05T07:22:30.519Z,7.47
2022-08-05T07:25:23.776Z,7.22
2022-08-05T07:27:58.468Z,8.23
2022-08-05T07:30:31.836Z,7.30
2022-08-05T07:33:00.771Z,7.55
2022-08-05T07:36:03.728Z,6.78
2022-08-05T07:38:32.515Z,6.70
2022-08-05T07:42:08.709Z,6.38
2022-08-05T07:43:53.189Z,6.65
2022-08-05T07:46:26.007Z,6.10
2022-08-05T07:49:02.069Z,6.22
2022-08-05T07:51:36.855Z,5.88
2022-08-05T07:54:06.317Z,5.82
2022-08-05T07:57:01.155Z,5.63
2022-08-05T07:59:39.058Z,6.40
2022-08-05T08:02:10.572Z,6.32
2022-08-05T08:04:45.332Z,5.38
2022-08-05T08:07:14.103Z,5.30
2022-08-05T08:09:43.720Z,5.22
2022-08-05T08:12:36.993Z,6.55
2022-08-05T08:15:04.334Z,4.80
2022-08-05T08:17:33.324Z,4.30
2022-08-05T08:20:21.052Z,5.13
2022-08-05T08:22:55.830Z,4.22
2022-08-05T08:25:26.723Z,3.83
2022-08-05T08:28:18.844Z,6.13
2022-08-05T08:31:04.301Z,5.07
2022-08-05T08:33:35.993Z,4.72
2022-08-05T08:38:56.933Z,4.50
2022-08-05T08:41:50.713Z,4.20
2022-08-05T08:45:19.498Z,4.35
2022-08-05T08:47:22.294Z,5.82
2022-08-05T08:50:23.111Z,4.65
2022-08-05T08:52:47.891Z,4.20
2022-08-05T08:56:02.811Z,5.15
2022-08-05T08:58:09.527Z,4.20
2022-08-05T09:00:38.508Z,4.10
2022-08-05T09:03:10.043Z,3.70
2022-08-05T09:06:07.813Z,4.00
2022-08-05T09:08:27.559Z,4.07
2022-08-05T09:10:59.043Z,3.50
2022-08-05T09:13:31.685Z,4.20
2022-08-05T09:16:01.139Z,3.58
2022-08-05T09:18:32.489Z,3.47
2022-08-05T09:21:01.038Z,3.20
2022-08-05T09:23:37.241Z,4.07
2022-08-05T09:26:15.838Z,3.45
2022-08-05T09:28:50.647Z,3.30
2022-08-05T09:31:43.176Z,2.85
2022-08-05T09:34:10.604Z,3.15
2022-08-05T09:36:54.382Z,7.95
2022-08-05T09:39:39.551Z,2.90
2022-08-05T09:42:17.477Z,3.20
2022-08-05T09:44:56.194Z,3.63
2022-08-05T09:47:27.750Z,3.33
2022-08-05T09:50:06.945Z,4.45
2022-08-05T09:52:45.134Z,3.03
2022-08-05T09:55:56.507Z,3.17
2022-08-05T09:58:11.634Z,2.90
2022-08-05T10:00:40.202Z,3.83
2022-08-05T10:03:12.600Z,3.42
2022-08-05T10:05:42.950Z,3.75
2022-08-05T10:08:35.804Z,3.63
2022-08-05T10:11:00.238Z,3.22
2022-08-05T10:13:31.574Z,4.57
2022-08-05T10:16:27.677Z,3.13
2022-08-05T10:18:57.094Z,3.42
2022-08-05T10:21:27.425Z,3.55
2022-08-05T10:24:09.209Z,3.40
2022-08-05T10:26:49.070Z,3.70
2022-08-05T10:29:23.922Z,3.03
2022-08-05T10:32:53.400Z,3.40
2022-08-05T10:35:01.084Z,3.15
2022-08-05T10:37:40.407Z,3.42
2022-08-05T10:40:18.727Z,3.20
2022-08-05T10:42:49.763Z,3.72
2022-08-05T10:45:23.564Z,3.88
2022-08-05T10:48:31.611Z,3.10
2022-08-05T10:51:04.264Z,3.70
2022-08-05T10:53:39.161Z,4.50
2022-08-05T10:56:21.272Z,4.00
2022-08-05T10:59:12.201Z,3.60
2022-08-05T11:01:55.643Z,3.92
2022-08-05T11:04:31.859Z,3.42
2022-08-05T11:07:06.672Z,3.38
2022-08-05T11:09:46.875Z,7.75
2022-08-05T11:12:34.126Z,4.40
2022-08-05T11:15:19.338Z,4.38
2022-08-05T11:17:57.083Z,4.40
2022-08-05T11:20:39.104Z,5.88
2022-08-05T11:23:49.863Z,4.75
2022-08-05T11:26:29.267Z,4.40
2022-08-05T11:29:12.272Z,4.10
2022-08-05T11:31:57.608Z,4.70
2022-08-05T11:34:38.306Z,7.82
2022-08-05T11:38:29.277Z,4.63
2022-08-05T11:40:02.666Z,4.43
2022-08-05T11:42:37.903Z,4.35
2022-08-05T11:45:23.102Z,4.28
2022-08-05T11:47:59.258Z,4.15
2022-08-05T11:50:28.002Z,4.63
2022-08-05T11:52:58.135Z,4.82
2022-08-05T11:55:32.022Z,4.88
2022-08-05T11:58:10.895Z,4.93
2022-08-05T12:00:41.298Z,4.68
2022-08-05T12:03:28.655Z,4.72
2022-08-05T12:06:01.329Z,4.45
2022-08-05T12:08:31.685Z,5.50
2022-08-05T12:11:05.551Z,5.45
2022-08-05T12:13:49.057Z,5.03
2022-08-05T12:16:19.896Z,5.40
2022-08-05T12:18:54.106Z,5.35
2022-08-05T12:21:23.968Z,5.40
2022-08-05T12:23:56.188Z,6.07
2022-08-05T12:26:25.166Z,7.22
2022-08-05T12:28:56.171Z,7.18
2022-08-05T12:31:33.504Z,7.18
2022-08-05T12:34:14.658Z,6.90
2022-08-05T12:36:50.301Z,10.73
2022-08-05T12:39:19.553Z,8.70
2022-08-05T12:41:48.584Z,8.20
2022-08-05T12:44:28.711Z,10.48
2022-08-05T12:47:02.604Z,10.77
2022-08-05T12:50:05.243Z,10.98
2022-08-05T12:52:33.884Z,9.93
2022-08-05T12:55:22.108Z,9.65
2022-08-05T12:58:49.828Z,10.05
2022-08-05T13:02:03.461Z,9.50
2022-08-05T13:03:32.898Z,9.82
2022-08-05T13:06:01.715Z,10.13
2022-08-05T13:08:32.344Z,10.68
2022-08-05T13:11:02.056Z,11.05
2022-08-05T13:14:05.234Z,10.45
2022-08-05T13:16:24.963Z,10.23
2022-08-05T13:18:55.195Z,11.07
2022-08-05T13:21:28.520Z,11.30
2022-08-05T13:24:08.898Z,11.05
2022-08-05T13:26:37.633Z,12.23
2022-08-05T13:29:09.522Z,13.05
2022-08-05T13:32:04.569Z,12.43
2022-08-05T13:34:27.925Z,10.40
2022-08-05T13:36:56.484Z,11.18
2022-08-05T13:40:15.078Z,11.07
2022-08-05T13:42:14.658Z,11.07
2022-08-05T13:44:45.640Z,10.77
2022-08-05T13:47:35.466Z,11.73
2022-08-05T13:50:14.841Z,10.52
2022-08-05T13:52:45.137Z,11.10
2022-08-05T13:55:40.694Z,10.70
2022-08-05T13:58:06.876Z,11.73
2022-08-05T14:00:39.564Z,11.32
2022-08-05T14:03:11.759Z,14.13
2022-08-05T14:06:24.594Z,13.02
2022-08-05T14:08:32.689Z,12.35
2022-08-05T14:11:03.152Z,13.57
2022-08-05T14:13:48.657Z,20.13
2022-08-05T14:16:23.668Z,14.77
2022-08-05T14:18:53.612Z,16.20
2022-08-05T14:22:09.178Z,12.98
2022-08-05T14:24:12.277Z,13.55
2022-08-05T14:26:51.433Z,12.95
2022-08-05T14:29:29.373Z,12.02
2022-08-05T14:32:11.310Z,12.07
2022-08-05T14:34:42.898Z,11.32
2022-08-05T14:37:13.283Z,11.20
2022-08-05T14:39:50.283Z,10.13
2022-08-05T14:42:25.553Z,10.68
2022-08-05T14:44:54.437Z,10.70
2022-08-05T14:48:02.588Z,10.80
2022-08-05T14:50:18.976Z,10.93
2022-08-05T14:52:53.541Z,10.13
2022-08-05T14:55:26.156Z,10.43
2022-08-05T14:58:10.941Z,9.52
2022-08-05T15:00:59.770Z,9.32
2022-08-05T15:03:33.071Z,9.20
2022-08-05T15:06:08.014Z,9.02
2022-08-05T15:08:59.118Z,9.30
2022-08-05T15:11:51.186Z,9.05
2022-08-05T15:14:34.734Z,8.88
2022-08-05T15:17:44.630Z,6.93
2022-08-05T15:19:57.760Z,6.50
2022-08-05T15:22:28.375Z,6.20
2022-08-05T15:24:59.108Z,5.90
2022-08-05T15:27:32.160Z,5.18
2022-08-05T15:30:05.351Z,6.28
2022-08-05T15:32:33.939Z,5.28
2022-08-05T15:35:09.876Z,5.03
2022-08-05T15:38:32.668Z,5.22
2022-08-05T15:41:01.465Z,5.10
2022-08-05T15:43:20.996Z,5.22
2022-08-05T15:45:59.781Z,4.85
2022-08-05T15:48:30.048Z,4.70
2022-08-05T15:51:01.564Z,4.60
2022-08-05T15:53:38.581Z,5.00
2022-08-05T15:56:19.922Z,4.18
2022-08-05T15:58:48.797Z,4.40
2022-08-05T16:01:19.059Z,4.40
2022-08-05T16:03:50.507Z,3.90
2022-08-05T16:06:20.910Z,4.13
2022-08-05T16:08:53.763Z,3.92
2022-08-05T16:11:42.602Z,4.90
2022-08-05T16:14:17.183Z,4.35
2022-08-05T16:16:49.224Z,3.75
2022-08-05T16:19:25.278Z,3.83
2022-08-05T16:22:06.585Z,3.67
2022-08-05T16:24:41.922Z,4.18
2022-08-05T16:27:32.196Z,3.70
2022-08-05T16:30:23.412Z,3.58
2022-08-05T16:32:55.202Z,4.63
2022-08-05T16:35:28.026Z,3.60
2022-08-05T16:38:15.435Z,3.65
2022-08-05T16:40:55.760Z,2.92
2022-08-05T16:43:31.302Z,3.58
2022-08-05T16:46:05.379Z,2.90
2022-08-05T16:48:37.658Z,2.90
2022-08-05T16:51:09.168Z,3.53
2022-08-05T16:54:03.990Z,2.85
2022-08-05T16:56:29.441Z,3.10
2022-08-05T16:58:58.883Z,4.75
2022-08-05T17:01:52.600Z,2.95
2022-08-05T17:04:19.052Z,2.67
2022-08-05T17:06:53.359Z,3.78
2022-08-05T17:09:23.116Z,3.10
2022-08-05T17:12:00.052Z,2.83
2022-08-05T17:14:36.971Z,3.35
2022-08-05T17:17:06.726Z,2.67
2022-08-05T17:19:45.660Z,2.95
2022-08-05T17:22:24.766Z,2.60
2022-08-05T17:24:57.494Z,3.33
2022-08-05T17:27:34.569Z,3.08
2022-08-05T17:30:11.908Z,2.58
2022-08-05T17:32:42.126Z,2.65
2022-08-05T17:35:12.261Z,2.95
2022-08-05T17:37:45.175Z,2.97
2022-08-05T17:40:15.285Z,3.13
2022-08-05T17:42:51.296Z,2.85
2022-08-05T17:45:22.077Z,3.08
2022-08-05T17:47:54.627Z,3.35
2022-08-05T17:50:28.869Z,2.95
2022-08-05T17:53:00.117Z,3.22
2022-08-05T17:55:38.044Z,3.03
2022-08-05T17:58:11.213Z,3.65
2022-08-05T18:00:45.059Z,3.42
2022-08-05T18:03:39.310Z,3.70
2022-08-05T18:06:09.979Z,3.65
2022-08-05T18:08:45.036Z,3.40
2022-08-05T18:11:23.226Z,3.83
2022-08-05T18:13:54.750Z,5.00
2022-08-05T18:16:24.076Z,4.50
2022-08-05T18:18:52.546Z,4.10
2022-08-05T18:21:23.055Z,6.20
2022-08-05T18:23:55.126Z,4.30
2022-08-05T18:26:29.059Z,4.00
2022-08-05T18:29:01.724Z,5.00
2022-08-05T18:31:33.162Z,4.60
2022-08-05T18:34:03.787Z,4.18
2022-08-05T18:36:36.082Z,4.38
2022-08-05T18:39:06.464Z,4.50
2022-08-05T18:42:00.388Z,4.68
2022-08-05T18:44:34.646Z,4.88
2022-08-05T18:47:04.833Z,4.88
2022-08-05T18:49:57.905Z,4.60
2022-08-05T18:52:35.649Z,5.03
2022-08-05T18:55:06.209Z,4.97
2022-08-05T18:57:50.088Z,5.90
2022-08-05T19:00:29.220Z,4.10
2022-08-05T19:03:04.171Z,4.15
2022-08-05T19:06:11.039Z,4.30
2022-08-05T19:08:22.129Z,4.75
2022-08-05T19:11:03.378Z,4.85
2022-08-05T19:13:35.627Z,4.47
2022-08-05T19:16:25.030Z,6.72
2022-08-05T19:18:57.147Z,5.72
2022-08-05T19:21:27.673Z,4.25
2022-08-05T19:24:06.054Z,4.88
2022-08-05T19:26:54.834Z,4.20
2022-08-05T19:29:26.546Z,4.18
2022-08-05T19:32:08.626Z,4.78
2022-08-05T19:34:40.379Z,4.50
2022-08-05T19:37:10.046Z,4.10
2022-08-05T19:39:45.450Z,4.75
2022-08-05T19:42:19.453Z,4.70
2022-08-05T19:45:05.896Z,4.05
2022-08-05T19:47:37.239Z,3.72
2022-08-05T19:50:07.862Z,4.30
2022-08-05T19:52:40.682Z,4.25
2022-08-05T19:56:14.088Z,3.80
2022-08-05T19:58:04.126Z,4.20
2022-08-05T20:00:47.259Z,4.80
2022-08-05T20:03:17.727Z,3.85
2022-08-05T20:05:51.165Z,4.07
2022-08-05T20:08:20.784Z,4.00
2022-08-05T20:10:53.332Z,4.43
2022-08-05T20:13:30.054Z,5.38
2022-08-05T20:16:11.286Z,3.80
2022-08-05T20:18:41.986Z,5.10
2022-08-05T20:21:13.613Z,6.35
2022-08-05T20:23:50.954Z,4.38
2022-08-05T20:26:20.748Z,4.63
2022-08-05T20:28:50.998Z,4.55
2022-08-05T20:31:21.857Z,5.97
2022-08-05T20:33:58.665Z,6.18
2022-08-05T20:36:27.319Z,5.40
2022-08-05T20:38:58.049Z,4.18
2022-08-05T20:41:44.453Z,4.18
2022-08-05T20:44:19.274Z,4.00
2022-08-05T20:46:59.404Z,5.97
2022-08-05T20:49:29.812Z,4.13
2022-08-05T20:52:07.216Z,3.63
2022-08-05T20:54:42.805Z,8.65
2022-08-05T20:57:14.331Z,5.97
2022-08-05T21:00:10.696Z,5.47
2022-08-05T21:02:31.534Z,5.85
2022-08-05T21:05:02.566Z,6.13
2022-08-05T21:07:45.702Z,5.60
2022-08-05T21:10:19.894Z,5.25
2022-08-05T21:12:58.349Z,4.47
2022-08-05T21:15:37.907Z,6.75
2022-08-05T21:18:06.596Z,6.95
2022-08-05T21:20:37.101Z,6.00
2022-08-05T21:23:07.409Z,4.38
2022-08-05T21:25:35.898Z,4.53
2022-08-05T21:28:04.644Z,6.03
2022-08-05T21:30:33.148Z,7.05
2022-08-05T21:33:02.037Z,4.00
2022-08-05T21:35:55.779Z,4.75
2022-08-05T21:38:25.536Z,4.75
2022-08-05T21:40:54.029Z,4.95
2022-08-05T21:43:24.557Z,6.20
2022-08-05T21:45:57.766Z,6.10
2022-08-05T21:48:29.396Z,5.13
2022-08-05T21:51:01.697Z,6.47
2022-08-05T21:53:30.180Z,5.75
2022-08-05T21:56:09.655Z,4.75
2022-08-05T21:58:57.268Z,4.72
2022-08-05T22:01:26.742Z,4.97
2022-08-05T22:03:55.308Z,4.90
2022-08-05T22:06:35.422Z,7.03
2022-08-05T22:09:13.762Z,7.28
2022-08-05T22:11:46.958Z,5.35
2022-08-05T22:14:35.341Z,7.43
2022-08-05T22:17:06.812Z,5.38
2022-08-05T22:20:00.104Z,4.70
2022-08-05T22:22:27.264Z,4.60
2022-08-05T22:25:18.167Z,4.85
2022-08-05T22:28:10.826Z,6.03
2022-08-05T22:30:44.136Z,4.85
2022-08-05T22:33:55.917Z,6.35
2022-08-05T22:36:14.775Z,5.15
2022-08-05T22:38:48.226Z,4.07
2022-08-05T22:41:26.009Z,5.57
2022-08-05T22:44:05.934Z,5.85
2022-08-05T22:46:39.419Z,4.65
2022-08-05T22:49:23.042Z,5.63
2022-08-05T22:52:04.811Z,4.93
2022-08-05T22:54:37.655Z,4.20
2022-08-05T22:57:07.529Z,4.07
2022-08-05T22:59:44.140Z,4.40
2022-08-05T23:02:17.648Z,4.32
2022-08-05T23:04:52.125Z,2.60
2022-08-05T23:07:21.830Z,2.10
2022-08-05T23:09:58.428Z,2.95
2022-08-05T23:12:32.825Z,3.60
2022-08-05T23:15:03.479Z,1.23
2022-08-05T23:17:34.216Z,4.53
2022-08-05T23:20:16.831Z,1.65
2022-08-05T23:22:47.445Z,2.95
2022-08-05T23:25:50.158Z,1.73
2022-08-05T23:28:07.654Z,3.42
2022-08-05T23:30:39.992Z,3.60
2022-08-05T23:33:22.500Z,1.60
2022-08-05T23:35:55.846Z,2.35
2022-08-05T23:38:26.692Z,2.38
2022-08-05T23:40:56.854Z,1.42
2022-08-05T23:44:05.366Z,4.07
2022-08-05T23:46:21.456Z,1.42
2022-08-05T23:48:59.876Z,3.72
2022-08-05T23:51:52.367Z,2.55
2022-08-05T23:54:25.695Z,3.47
2022-08-05T23:56:58.271Z,2.90
